createdAt,value
2018-06-19T00:01:33.446Z,101779.66
2018-06-19T00:04:01.729Z,101785.67
2018-06-19T00:06:30.049Z,101788.22
2018-06-19T00:08:58.301Z,101783.47
2018-06-19T00:11:26.577Z,101784.01
2018-06-19T00:13:54.817Z,101786.46
2018-06-19T00:16:23.081Z,101775.27
2018-06-19T00:18:54.516Z,101786.90
2018-06-19T00:21:26.251Z,101788.41
2018-06-19T00:23:54.609Z,101790.30
2018-06-19T00:26:23.106Z,101788.69
2018-06-19T00:28:51.397Z,101792.38
2018-06-19T00:31:19.673Z,101788.47
2018-06-19T00:33:47.969Z,101786.55
2018-06-19T00:36:16.212Z,101785.38
2018-06-19T00:38:44.681Z,101789.84
2018-06-19T00:41:12.946Z,101792.93
2018-06-19T00:43:41.193Z,101786.56
2018-06-19T00:46:09.729Z,101787.45
2018-06-19T00:48:38.100Z,101781.28
2018-06-19T00:51:06.357Z,101779.61
2018-06-19T00:53:34.617Z,101778.55
2018-06-19T00:56:14.361Z,101778.88
2018-06-19T00:58:43.005Z,101776.14
2018-06-19T01:01:11.586Z,101771.25
2018-06-19T01:03:39.856Z,101779.02
2018-06-19T01:06:08.337Z,101779.86
2018-06-19T01:08:36.599Z,101777.16
2018-06-19T01:11:05.076Z,101779.31
2018-06-19T01:13:33.314Z,101775.02
2018-06-19T01:16:01.566Z,101769.98
2018-06-19T01:18:30.009Z,101772.47
2018-06-19T01:20:58.246Z,101766.01
2018-06-19T01:23:26.536Z,101768.50
2018-06-19T01:25:54.942Z,101767.91
2018-06-19T01:28:23.203Z,101765.54
2018-06-19T01:30:51.517Z,101759.16
2018-06-19T01:33:19.797Z,101756.63
2018-06-19T01:35:48.056Z,101760.48
2018-06-19T01:38:16.320Z,101753.09
2018-06-19T01:40:44.801Z,101749.42
2018-06-19T01:43:13.041Z,101747.81
2018-06-19T01:45:41.276Z,101746.80
2018-06-19T01:48:09.563Z,101744.88
2018-06-19T01:50:37.985Z,101745.23
2018-06-19T01:53:06.222Z,101744.98
2018-06-19T01:55:34.978Z,101739.15
2018-06-19T01:58:03.212Z,101740.52
2018-06-19T02:00:31.461Z,101739.30
2018-06-19T02:03:00.011Z,101738.03
2018-06-19T02:05:28.253Z,101730.64
2018-06-19T02:07:56.489Z,101729.41
2018-06-19T02:10:24.773Z,101728.78
2018-06-19T02:12:53.041Z,101735.64
2018-06-19T02:15:21.341Z,101741.70
2018-06-19T02:17:49.664Z,101739.11
2018-06-19T02:20:17.913Z,101743.23
2018-06-19T02:22:46.157Z,101737.26
2018-06-19T02:25:14.510Z,101744.73
2018-06-19T02:27:42.764Z,101744.48
2018-06-19T02:30:11.017Z,101735.66
2018-06-19T02:32:39.303Z,101734.52
2018-06-19T02:35:07.553Z,101737.30
2018-06-19T02:37:35.805Z,101723.98
2018-06-19T02:40:04.122Z,101725.08
2018-06-19T02:42:32.413Z,101729.81
2018-06-19T02:45:00.665Z,101722.17
2018-06-19T02:47:29.079Z,101726.34
2018-06-19T02:49:57.323Z,101720.09
2018-06-19T02:52:25.609Z,101721.91
2018-06-19T02:54:54.285Z,101728.64
2018-06-19T02:57:22.553Z,101722.03
2018-06-19T02:59:50.793Z,101718.58
2018-06-19T03:02:19.057Z,101729.67
2018-06-19T03:04:47.300Z,101726.97
2018-06-19T03:07:15.572Z,101734.06
2018-06-19T03:09:43.809Z,101743.16
2018-06-19T03:12:12.072Z,101736.77
2018-06-19T03:14:40.319Z,101733.03
2018-06-19T03:17:08.596Z,101737.39
2018-06-19T03:19:37.012Z,101734.41
2018-06-19T03:22:05.325Z,101738.17
2018-06-19T03:24:33.569Z,101737.77
2018-06-19T03:27:01.841Z,101736.85
2018-06-19T03:29:30.082Z,101737.34
2018-06-19T03:31:58.353Z,101741.09
2018-06-19T03:34:26.680Z,101742.77
2018-06-19T03:36:54.969Z,101743.86
2018-06-19T03:39:23.225Z,101743.45
2018-06-19T03:41:51.471Z,101741.07
2018-06-19T03:44:19.862Z,101750.61
2018-06-19T03:46:48.133Z,101749.52
2018-06-19T03:49:16.405Z,101753.88
2018-06-19T03:51:44.649Z,101763.88
2018-06-19T03:54:12.951Z,101757.84
2018-06-19T03:56:41.222Z,101772.86
2018-06-19T03:59:09.490Z,101769.64
2018-06-19T04:01:37.749Z,101770.86
2018-06-19T04:04:06.166Z,101769.39
2018-06-19T04:06:34.405Z,101766.00
2018-06-19T04:09:05.027Z,101764.88
2018-06-19T04:11:33.276Z,101766.41
2018-06-19T04:14:01.554Z,101764.59
2018-06-19T04:16:29.828Z,101779.61
2018-06-19T04:18:58.108Z,101752.77
2018-06-19T04:21:26.357Z,101751.02
2018-06-19T04:23:54.633Z,101749.69
2018-06-19T04:26:22.878Z,101763.89
2018-06-19T04:28:51.162Z,101759.69
2018-06-19T04:31:19.397Z,101756.35
2018-06-19T04:33:47.929Z,101759.50
2018-06-19T04:36:16.187Z,101758.05
2018-06-19T04:38:44.433Z,101750.33
2018-06-19T04:41:12.792Z,101748.73
2018-06-19T04:43:41.036Z,101742.91
2018-06-19T04:46:09.315Z,101756.86
2018-06-19T04:48:37.556Z,101747.67
2018-06-19T04:51:05.933Z,101744.27
2018-06-19T04:53:34.186Z,101743.05
2018-06-19T04:56:02.508Z,101750.44
2018-06-19T04:58:30.782Z,101746.20
2018-06-19T05:00:59.049Z,101734.09
2018-06-19T05:03:27.359Z,101735.64
2018-06-19T05:05:55.670Z,101730.45
2018-06-19T05:08:23.929Z,101728.72
2018-06-19T05:10:52.201Z,101733.28
2018-06-19T05:13:20.514Z,101727.70
2018-06-19T05:15:48.775Z,101727.67
2018-06-19T05:18:17.021Z,101741.43
2018-06-19T05:20:45.285Z,101745.89
2018-06-19T05:23:13.530Z,101745.25
2018-06-19T05:25:41.806Z,101749.59
2018-06-19T05:28:10.037Z,101761.39
2018-06-19T05:30:38.308Z,101759.08
2018-06-19T05:33:06.575Z,101765.39
2018-06-19T05:35:34.867Z,101775.98
2018-06-19T05:38:03.421Z,101763.48
2018-06-19T05:40:31.778Z,101769.91
2018-06-19T05:43:00.058Z,101775.99
2018-06-19T05:45:28.473Z,101772.51
2018-06-19T05:47:56.751Z,101787.45
2018-06-19T05:50:24.996Z,101794.50
2018-06-19T05:52:53.326Z,101795.21
2018-06-19T05:55:21.544Z,101790.67
2018-06-19T05:57:49.841Z,101796.72
2018-06-19T06:00:18.184Z,101801.91
2018-06-19T06:02:46.452Z,101792.75
2018-06-19T06:05:14.825Z,101794.04
2018-06-19T06:07:43.141Z,101798.33
2018-06-19T06:10:11.378Z,101797.09
2018-06-19T06:12:39.641Z,101796.66
2018-06-19T06:15:07.884Z,101804.88
2018-06-19T06:17:36.183Z,101811.53
2018-06-19T06:20:05.217Z,101807.30
2018-06-19T06:22:33.477Z,101820.25
2018-06-19T06:25:01.724Z,101819.76
2018-06-19T06:27:30.054Z,101828.82
2018-06-19T06:29:58.372Z,101835.90
2018-06-19T06:32:26.645Z,101830.00
2018-06-19T06:34:54.919Z,101837.58
2018-06-19T06:37:23.167Z,101827.58
2018-06-19T06:39:51.473Z,101829.91
2018-06-19T06:42:19.720Z,101839.32
2018-06-19T06:44:48.063Z,101837.00
2018-06-19T06:47:16.250Z,101840.59
2018-06-19T06:49:44.522Z,101840.70
2018-06-19T06:52:12.768Z,101844.34
2018-06-19T06:54:41.078Z,101853.19
2018-06-19T06:57:09.323Z,101847.37
2018-06-19T06:59:37.593Z,101847.88
2018-06-19T07:02:05.852Z,101850.39
2018-06-19T07:04:34.277Z,101845.64
2018-06-19T07:07:02.537Z,101848.83
2018-06-19T07:09:30.953Z,101855.14
2018-06-19T07:11:59.243Z,101854.68
2018-06-19T07:14:27.494Z,101853.20
2018-06-19T07:16:55.765Z,101860.07
2018-06-19T07:19:24.050Z,101858.65
2018-06-19T07:21:52.305Z,101858.72
2018-06-19T07:24:20.548Z,101857.70
2018-06-19T07:26:48.819Z,101872.58
2018-06-19T07:29:17.061Z,101875.72
2018-06-19T07:31:45.329Z,101873.49
2018-06-19T07:34:13.701Z,101869.28
2018-06-19T07:36:42.048Z,101863.80
2018-06-19T07:39:11.024Z,101874.31
2018-06-19T07:41:39.356Z,101883.11
2018-06-19T07:44:07.685Z,101891.36
2018-06-19T07:46:35.897Z,101896.67
2018-06-19T07:49:04.158Z,101898.86
2018-06-19T07:51:32.461Z,101906.80
2018-06-19T07:54:00.889Z,101914.43
2018-06-19T07:56:29.265Z,101922.59
2018-06-19T07:58:57.501Z,101920.51
2018-06-19T08:01:25.781Z,101919.05
2018-06-19T08:03:54.025Z,101911.80
2018-06-19T08:06:22.347Z,101918.36
2018-06-19T08:08:50.606Z,101920.83
2018-06-19T08:11:18.853Z,101929.84
2018-06-19T08:13:47.134Z,101927.30
2018-06-19T08:16:15.397Z,101943.97
2018-06-19T08:18:43.732Z,101930.66
2018-06-19T08:21:11.989Z,101932.17
2018-06-19T08:23:40.297Z,101947.70
2018-06-19T08:26:08.553Z,101943.00
2018-06-19T08:28:36.862Z,101951.73
2018-06-19T08:31:05.104Z,101961.50
2018-06-19T08:33:33.408Z,101969.59
2018-06-19T08:36:01.666Z,101980.10
2018-06-19T08:38:29.945Z,101967.93
2018-06-19T08:40:58.249Z,101963.43
2018-06-19T08:43:26.556Z,101966.02
2018-06-19T08:45:54.840Z,101966.70
2018-06-19T08:48:23.129Z,101967.58
2018-06-19T08:50:51.377Z,101968.99
2018-06-19T08:53:19.692Z,101968.95
2018-06-19T08:55:47.951Z,101973.52
2018-06-19T08:58:16.261Z,101960.50
2018-06-19T09:00:44.553Z,101973.69
2018-06-19T09:03:12.824Z,101969.20
2018-06-19T09:05:41.144Z,101977.79
2018-06-19T09:08:09.393Z,101971.27
2018-06-19T09:10:37.680Z,101979.42
2018-06-19T09:13:05.954Z,101977.66
2018-06-19T09:15:34.256Z,101985.52
2018-06-19T09:18:02.529Z,101989.98
2018-06-19T09:20:30.826Z,101989.26
2018-06-19T09:22:59.089Z,101997.89
2018-06-19T09:25:27.374Z,101995.55
2018-06-19T09:27:55.665Z,101989.17
2018-06-19T09:30:23.933Z,101997.61
2018-06-19T09:32:52.177Z,101994.69
2018-06-19T09:35:20.488Z,101992.72
2018-06-19T09:37:48.726Z,101997.00
2018-06-19T09:40:17.027Z,101991.77
2018-06-19T09:42:45.389Z,101974.57
2018-06-19T09:45:13.944Z,101991.95
2018-06-19T09:47:42.393Z,101980.89
2018-06-19T09:50:10.650Z,101977.27
2018-06-19T09:52:38.989Z,101982.59
2018-06-19T09:55:07.287Z,101978.23
2018-06-19T09:57:35.957Z,101972.72
2018-06-19T10:00:04.706Z,101969.61
2018-06-19T10:02:33.177Z,101978.06
2018-06-19T10:05:01.480Z,101979.80
2018-06-19T10:07:29.769Z,101978.41
2018-06-19T10:09:58.049Z,101982.89
2018-06-19T10:12:26.360Z,101993.04
2018-06-19T10:14:54.618Z,101989.41
2018-06-19T10:17:23.033Z,101984.02
2018-06-19T10:19:51.393Z,101989.34
2018-06-19T10:22:19.676Z,101985.48
2018-06-19T10:24:47.933Z,101976.18
2018-06-19T10:27:16.210Z,101970.30
2018-06-19T10:29:44.455Z,101964.55
2018-06-19T10:32:12.780Z,101973.38
2018-06-19T10:34:41.059Z,101975.30
2018-06-19T10:37:09.329Z,101972.41
2018-06-19T10:39:37.632Z,101981.73
2018-06-19T10:42:06.197Z,101988.90
2018-06-19T10:44:34.449Z,101984.05
2018-06-19T10:47:02.713Z,101989.08
2018-06-19T10:49:31.145Z,101985.06
2018-06-19T10:51:59.405Z,101984.05
2018-06-19T10:54:27.777Z,101979.02
2018-06-19T10:56:56.017Z,101986.90
2018-06-19T10:59:24.272Z,101978.56
2018-06-19T11:01:52.526Z,101977.23
2018-06-19T11:04:20.797Z,101997.07
2018-06-19T11:06:49.049Z,102006.03
2018-06-19T11:09:17.314Z,101996.05
2018-06-19T11:11:45.607Z,102006.36
2018-06-19T11:14:13.948Z,102004.73
2018-06-19T11:16:42.119Z,102013.99
2018-06-19T11:19:10.389Z,102012.84
2018-06-19T11:21:38.665Z,102010.85
2018-06-19T11:24:06.999Z,102018.34
2018-06-19T11:26:35.257Z,102007.02
2018-06-19T11:29:03.565Z,102022.54
2018-06-19T11:31:31.797Z,102028.45
2018-06-19T11:34:00.070Z,102007.36
2018-06-19T11:36:28.313Z,102032.48
2018-06-19T11:38:56.614Z,102007.38
2018-06-19T11:41:24.884Z,102003.34
2018-06-19T11:43:53.424Z,102015.68
2018-06-19T11:46:21.701Z,102007.91
2018-06-19T11:48:49.950Z,102017.98
2018-06-19T11:51:18.259Z,102031.20
2018-06-19T11:53:46.478Z,102029.20
2018-06-19T11:56:14.737Z,102032.98
2018-06-19T11:58:42.985Z,102024.67
2018-06-19T12:01:11.386Z,102028.55
2018-06-19T12:03:39.565Z,102032.67
2018-06-19T12:06:07.863Z,102023.72
2018-06-19T12:08:36.113Z,102017.08
2018-06-19T12:11:04.385Z,102023.05
2018-06-19T12:13:32.673Z,102020.72
2018-06-19T12:16:00.974Z,102027.38
2018-06-19T12:18:29.217Z,102029.22
2018-06-19T12:20:57.521Z,102047.33
2018-06-19T12:23:26.011Z,102037.48
2018-06-19T12:25:54.288Z,102031.72
2018-06-19T12:28:22.571Z,102033.86
2018-06-19T12:30:50.832Z,102039.42
2018-06-19T12:33:19.101Z,102039.06
2018-06-19T12:35:47.361Z,102051.42
2018-06-19T12:38:15.621Z,102057.50
2018-06-19T12:40:44.025Z,102047.96
2018-06-19T12:43:12.813Z,102058.38
2018-06-19T12:45:41.049Z,102064.19
2018-06-19T12:48:09.336Z,102065.69
2018-06-19T12:50:48.721Z,102056.38
2018-06-19T12:53:28.364Z,102067.34
2018-06-19T12:56:08.109Z,102063.02
2018-06-19T12:58:36.417Z,102069.38
2018-06-19T13:01:04.662Z,102074.69
2018-06-19T13:03:44.360Z,102083.45
2018-06-19T13:06:24.026Z,102072.74
2018-06-19T13:08:52.325Z,102081.84
2018-06-19T13:11:20.561Z,102072.38
2018-06-19T13:14:00.057Z,102076.34
2018-06-19T13:16:39.552Z,102074.66
2018-06-19T13:19:23.469Z,102072.84
2018-06-19T13:21:51.964Z,102076.87
2018-06-19T13:24:20.432Z,102081.16
2018-06-19T13:26:48.625Z,102010.72
2018-06-19T13:29:39.557Z,102082.69
2018-06-19T13:32:07.814Z,102082.86
2018-06-19T13:34:36.649Z,102080.36
2018-06-19T13:37:05.405Z,102087.30
2018-06-19T13:39:34.217Z,102118.63
2018-06-19T13:42:14.217Z,102094.41
2018-06-19T13:44:56.909Z,102104.55
2018-06-19T13:47:25.249Z,102102.05
2018-06-19T13:49:53.714Z,102121.61
2018-06-19T13:52:22.033Z,102104.97
2018-06-19T13:54:50.292Z,102115.42
2018-06-19T13:57:32.465Z,102127.00
2018-06-19T14:00:02.109Z,102113.48
2018-06-19T14:02:30.446Z,102124.52
2018-06-19T14:04:59.072Z,102125.57
2018-06-19T14:07:28.483Z,102115.72
2018-06-19T14:10:08.321Z,102114.94
2018-06-19T14:13:13.036Z,102117.33
2018-06-19T14:15:44.342Z,102137.80
2018-06-19T14:18:13.526Z,102148.65
2018-06-19T14:20:42.409Z,102126.70
2018-06-19T14:23:10.893Z,102138.78
2018-06-19T14:25:39.221Z,102137.92
2018-06-19T14:28:07.602Z,102140.00
2018-06-19T14:30:36.001Z,102135.57
2018-06-19T14:33:04.386Z,102132.11
2018-06-19T14:35:32.598Z,102146.56
2018-06-19T14:38:00.832Z,102130.50
2018-06-19T14:40:29.181Z,102131.72
2018-06-19T14:42:57.431Z,102129.47
2018-06-19T14:45:25.845Z,102132.96
2018-06-19T14:47:54.112Z,102109.94
2018-06-19T14:50:22.374Z,102125.61
2018-06-19T14:52:50.621Z,102143.97
2018-06-19T14:55:18.906Z,102161.61
2018-06-19T14:57:47.205Z,102138.41
2018-06-19T15:00:15.489Z,102139.47
2018-06-19T15:02:43.735Z,102143.92
2018-06-19T15:05:12.018Z,102133.77
2018-06-19T15:07:45.646Z,102143.00
2018-06-19T15:10:16.110Z,102149.73
2018-06-19T15:12:44.381Z,102132.03
2018-06-19T15:15:12.756Z,102145.04
2018-06-19T15:17:41.067Z,102148.05
2018-06-19T15:20:09.377Z,102135.37
2018-06-19T15:22:37.679Z,102155.84
2018-06-19T15:25:06.063Z,102145.50
2018-06-19T15:27:34.490Z,102151.20
2018-06-19T15:30:03.368Z,102154.92
2018-06-19T15:32:31.644Z,102155.06
2018-06-19T15:34:59.950Z,102159.84
2018-06-19T15:37:28.244Z,102143.38
2018-06-19T15:39:56.614Z,102156.69
2018-06-19T15:42:24.945Z,102173.14
2018-06-19T15:44:53.396Z,102151.78
2018-06-19T15:47:21.711Z,102158.00
2018-06-19T15:49:50.124Z,102164.33
2018-06-19T15:52:18.463Z,102184.00
2018-06-19T15:54:47.608Z,102166.81
2018-06-19T15:57:15.937Z,102170.95
2018-06-19T15:59:44.381Z,102166.45
2018-06-19T16:02:12.697Z,102157.36
2018-06-19T16:04:40.976Z,102159.50
2018-06-19T16:07:09.297Z,102167.05
2018-06-19T16:09:37.605Z,102165.24
2018-06-19T16:12:06.120Z,102162.09
2018-06-19T16:14:34.425Z,102174.52
2018-06-19T16:17:02.874Z,102166.28
2018-06-19T16:19:33.233Z,102185.45
2018-06-19T16:22:01.601Z,102183.67
2018-06-19T16:24:29.895Z,102184.98
2018-06-19T16:26:58.269Z,102181.56
2018-06-19T16:29:26.537Z,102187.35
2018-06-19T16:31:54.990Z,102186.16
2018-06-19T16:34:23.365Z,102183.33
2018-06-19T16:36:51.708Z,102191.27
2018-06-19T16:39:20.045Z,102182.37
2018-06-19T16:41:48.373Z,102182.27
2018-06-19T16:44:16.685Z,102190.61
2018-06-19T16:46:45.090Z,102195.53
2018-06-19T16:49:13.818Z,102186.26
2018-06-19T16:51:42.113Z,102174.89
2018-06-19T16:54:10.445Z,102181.94
2018-06-19T16:56:38.741Z,102186.06
2018-06-19T16:59:07.065Z,102175.95
2018-06-19T17:01:35.352Z,102183.95
2018-06-19T17:04:03.673Z,102180.72
2018-06-19T17:06:31.985Z,102186.62
2018-06-19T17:09:00.337Z,102188.41
2018-06-19T17:11:28.621Z,102187.92
2018-06-19T17:13:56.966Z,102176.27
2018-06-19T17:16:25.262Z,102177.48
2018-06-19T17:18:53.609Z,102197.98
2018-06-19T17:21:21.971Z,102200.81
2018-06-19T17:23:50.250Z,102201.19
2018-06-19T17:26:18.540Z,102202.09
2018-06-19T17:28:46.860Z,102199.45
2018-06-19T17:31:15.198Z,102199.03
2018-06-19T17:33:43.500Z,102193.63
2018-06-19T17:36:11.822Z,102200.47
2018-06-19T17:38:40.167Z,102205.90
2018-06-19T17:41:08.480Z,102219.70
2018-06-19T17:43:36.815Z,102222.38
2018-06-19T17:46:05.137Z,102202.39
2018-06-19T17:48:33.409Z,102228.04
2018-06-19T17:51:01.675Z,102219.16
2018-06-19T17:53:29.925Z,102220.59
2018-06-19T17:55:58.213Z,102223.89
2018-06-19T17:58:26.476Z,102233.78
2018-06-19T18:00:54.825Z,102231.59
2018-06-19T18:03:23.109Z,102230.53
2018-06-19T18:05:51.402Z,102234.85
2018-06-19T18:08:19.668Z,102240.66
2018-06-19T18:10:48.072Z,102239.20
2018-06-19T18:13:16.272Z,102238.40
2018-06-19T18:15:44.553Z,102239.81
2018-06-19T18:18:12.841Z,102237.16
2018-06-19T18:20:41.448Z,102232.15
2018-06-19T18:23:09.755Z,102232.11
2018-06-19T18:25:38.107Z,102243.69
2018-06-19T18:28:06.382Z,102246.52
2018-06-19T18:30:34.695Z,102238.91
2018-06-19T18:33:03.136Z,102249.38
2018-06-19T18:35:31.450Z,102246.89
2018-06-19T18:37:59.729Z,102246.25
2018-06-19T18:40:28.013Z,102248.65
2018-06-19T18:42:56.382Z,102249.53
2018-06-19T18:45:24.677Z,102252.34
2018-06-19T18:47:52.961Z,102236.83
2018-06-19T18:50:21.242Z,102242.47
2018-06-19T18:52:49.546Z,102239.59
2018-06-19T18:55:17.839Z,102245.50
2018-06-19T18:57:46.120Z,102242.05
2018-06-19T19:00:14.420Z,102239.27
2018-06-19T19:02:42.721Z,102234.03
2018-06-19T19:05:10.973Z,102238.77
2018-06-19T19:07:39.250Z,102239.81
2018-06-19T19:10:12.949Z,102244.06
2018-06-19T19:12:41.233Z,102239.16
2018-06-19T19:15:14.766Z,102241.73
2018-06-19T19:17:48.484Z,102250.19
2018-06-19T19:20:16.752Z,102242.98
2018-06-19T19:22:45.033Z,102248.48
2018-06-19T19:25:13.297Z,102255.81
2018-06-19T19:27:46.893Z,102257.65
2018-06-19T19:30:15.153Z,102258.47
2018-06-19T19:32:43.438Z,102265.50
2018-06-19T19:35:11.702Z,102263.56
2018-06-19T19:37:45.200Z,102268.61
2018-06-19T19:40:13.553Z,102273.16
2018-06-19T19:42:42.020Z,102278.86
2018-06-19T19:45:16.033Z,102270.95
2018-06-19T19:47:52.153Z,102275.17
2018-06-19T19:50:21.928Z,102272.53
2018-06-19T19:57:15.641Z,102271.96
2018-06-19T20:23:46.723Z,102321.19
2018-06-19T20:26:16.310Z,102315.06
2018-06-19T20:28:44.838Z,102324.41
2018-06-19T20:31:14.092Z,102320.20
2018-06-19T20:33:43.134Z,102317.58
2018-06-19T20:55:25.702Z,102334.05
2018-06-19T20:57:55.014Z,102335.65
2018-06-19T21:00:29.454Z,102336.47
2018-06-19T21:03:14.441Z,102335.48
2018-06-19T21:05:43.098Z,102340.05
2018-06-19T21:08:11.292Z,102337.84
2018-06-19T21:53:54.447Z,102318.55
2018-06-19T21:56:22.919Z,102316.59
2018-06-19T21:58:51.506Z,102314.59
2018-06-19T22:01:19.978Z,102321.27
2018-06-19T22:37:18.877Z,102302.73
2018-06-19T22:39:47.087Z,102300.83
2018-06-19T22:42:15.325Z,102305.86
2018-06-19T23:06:06.639Z,102305.72
2018-06-19T23:19:29.898Z,102283.64
2018-06-19T23:21:58.092Z,102284.00
2018-06-19T23:24:26.282Z,102281.55
2018-06-19T23:26:54.461Z,102271.80
2018-06-19T23:29:22.632Z,102280.48
2018-06-19T23:32:04.747Z,102273.90
